sensor_id;sensor_type;location;lat;lon;timestamp;pressure;altitude;pressure_sealevel;temperature;humidity
23016;BME280;11674;52.428;13.584;2023-02-20T00:01:52;101910.19;;;4.44;81.26
23016;BME280;11674;52.428;13.584;2023-02-20T00:07:00;101909.78;;;4.41;81.07
23016;BME280;11674;52.428;13.584;2023-02-20T00:12:07;101913.81;;;4.38;81.13
23016;BME280;11674;52.428;13.584;2023-02-20T00:17:14;101903.28;;;4.35;81.12
23016;BME280;11674;52.428;13.584;2023-02-20T00:22:22;101902.91;;;4.32;81.06
23016;BME280;11674;52.428;13.584;2023-02-20T00:27:29;101904.19;;;4.29;80.84
23016;BME280;11674;52.428;13.584;2023-02-20T00:32:36;101886.25;;;4.27;80.93
23016;BME280;11674;52.428;13.584;2023-02-20T00:37:45;101883.94;;;4.24;81.01
23016;BME280;11674;52.428;13.584;2023-02-20T00:42:52;101874.63;;;4.25;81.01
23016;BME280;11674;52.428;13.584;2023-02-20T00:48:02;101870.19;;;4.24;80.93
23016;BME280;11674;52.428;13.584;2023-02-20T00:53:08;101865.78;;;4.23;81.13
23016;BME280;11674;52.428;13.584;2023-02-20T00:58:15;101867.47;;;4.24;81.20
23016;BME280;11674;52.428;13.584;2023-02-20T01:03:23;101870.19;;;4.24;81.19
23016;BME280;11674;52.428;13.584;2023-02-20T01:08:30;101848.25;;;4.24;81.04
23016;BME280;11674;52.428;13.584;2023-02-20T01:13:38;101847.38;;;4.23;80.96
23016;BME280;11674;52.428;13.584;2023-02-20T01:18:50;101845.72;;;4.22;81.05
23016;BME280;11674;52.428;13.584;2023-02-20T01:23:57;101835.38;;;4.24;81.05
23016;BME280;11674;52.428;13.584;2023-02-20T01:29:04;101830.47;;;4.26;81.12
23016;BME280;11674;52.428;13.584;2023-02-20T01:34:11;101819.88;;;4.30;81.25
23016;BME280;11674;52.428;13.584;2023-02-20T01:39:23;101814.78;;;4.33;81.28
23016;BME280;11674;52.428;13.584;2023-02-20T01:44:33;101791.53;;;4.36;81.40
23016;BME280;11674;52.428;13.584;2023-02-20T01:49:46;101793.63;;;4.40;81.39
23016;BME280;11674;52.428;13.584;2023-02-20T01:54:58;101785.94;;;4.49;81.41
23016;BME280;11674;52.428;13.584;2023-02-20T02:00:09;101742.38;;;4.52;81.37
23016;BME280;11674;52.428;13.584;2023-02-20T02:05:21;101741.66;;;4.57;81.38
23016;BME280;11674;52.428;13.584;2023-02-20T02:21:53;101742.38;;;4.52;81.59
23016;BME280;11674;52.428;13.584;2023-02-20T02:27:32;101737.84;;;4.58;81.39
23016;BME280;11674;52.428;13.584;2023-02-20T02:32:53;101734.22;;;4.64;81.42
23016;BME280;11674;52.428;13.584;2023-02-20T02:44:42;101715.03;;;4.75;81.57
23016;BME280;11674;52.428;13.584;2023-02-20T02:50:05;101698.28;;;4.83;81.71
23016;BME280;11674;52.428;13.584;2023-02-20T02:55:26;101686.56;;;4.88;81.47
23016;BME280;11674;52.428;13.584;2023-02-20T03:05:46;101680.16;;;4.94;81.60
23016;BME280;11674;52.428;13.584;2023-02-20T03:10:53;101684.34;;;4.96;81.42
23016;BME280;11674;52.428;13.584;2023-02-20T03:16:00;101657.72;;;4.97;81.86
23016;BME280;11674;52.428;13.584;2023-02-20T03:21:13;101663.94;;;5.04;81.75
23016;BME280;11674;52.428;13.584;2023-02-20T03:26:27;101651.19;;;5.09;81.87
23016;BME280;11674;52.428;13.584;2023-02-20T03:31:41;101642.84;;;5.16;81.92
23016;BME280;11674;52.428;13.584;2023-02-20T03:36:58;101629.59;;;5.24;82.10
23016;BME280;11674;52.428;13.584;2023-02-20T03:42:10;101625.44;;;5.33;82.24
23016;BME280;11674;52.428;13.584;2023-02-20T03:47:25;101604.91;;;5.47;82.33
23016;BME280;11674;52.428;13.584;2023-02-20T03:52:32;101607.53;;;5.54;82.30
23016;BME280;11674;52.428;13.584;2023-02-20T03:57:44;101605.53;;;5.61;82.17
23016;BME280;11674;52.428;13.584;2023-02-20T04:02:54;101615.09;;;5.70;82.36
23016;BME280;11674;52.428;13.584;2023-02-20T04:08:13;101623.63;;;5.80;82.51
23016;BME280;11674;52.428;13.584;2023-02-20T04:13:22;101612.06;;;5.89;82.33
23016;BME280;11674;52.428;13.584;2023-02-20T04:18:30;101589.41;;;6.10;82.66
23016;BME280;11674;52.428;13.584;2023-02-20T04:23:41;101590.47;;;6.21;82.45
23016;BME280;11674;52.428;13.584;2023-02-20T04:28:51;101581.47;;;6.25;82.34
23016;BME280;11674;52.428;13.584;2023-02-20T04:33:58;101570.09;;;6.33;82.42
23016;BME280;11674;52.428;13.584;2023-02-20T04:39:06;101565.38;;;6.45;82.44
23016;BME280;11674;52.428;13.584;2023-02-20T04:44:12;101560.94;;;6.56;82.55
23016;BME280;11674;52.428;13.584;2023-02-20T04:49:22;101545.44;;;6.66;82.36
23016;BME280;11674;52.428;13.584;2023-02-20T04:54:32;101533.75;;;6.76;82.24
23016;BME280;11674;52.428;13.584;2023-02-20T04:59:40;101541.63;;;6.84;82.35
23016;BME280;11674;52.428;13.584;2023-02-20T05:04:48;101527.44;;;6.92;82.28
23016;BME280;11674;52.428;13.584;2023-02-20T05:09:54;101508.00;;;6.98;82.32
23016;BME280;11674;52.428;13.584;2023-02-20T05:15:01;101501.72;;;7.03;82.18
23016;BME280;11674;52.428;13.584;2023-02-20T05:20:09;101488.00;;;7.08;82.27
23016;BME280;11674;52.428;13.584;2023-02-20T05:25:16;101480.34;;;7.10;82.20
23016;BME280;11674;52.428;13.584;2023-02-20T05:30:23;101486.19;;;7.13;82.22
23016;BME280;11674;52.428;13.584;2023-02-20T05:35:30;101485.19;;;7.19;82.27
23016;BME280;11674;52.428;13.584;2023-02-20T05:40:37;101487.19;;;7.24;82.20
23016;BME280;11674;52.428;13.584;2023-02-20T05:45:44;101489.47;;;7.27;82.25
23016;BME280;11674;52.428;13.584;2023-02-20T05:50:51;101470.13;;;7.27;82.11
23016;BME280;11674;52.428;13.584;2023-02-20T05:55:58;101471.81;;;7.28;82.21
23016;BME280;11674;52.428;13.584;2023-02-20T06:01:05;101456.91;;;7.29;82.04
23016;BME280;11674;52.428;13.584;2023-02-20T06:06:13;101461.00;;;7.26;82.03
23016;BME280;11674;52.428;13.584;2023-02-20T06:11:20;101428.69;;;7.22;81.86
23016;BME280;11674;52.428;13.584;2023-02-20T06:16:28;101420.06;;;7.18;82.00
23016;BME280;11674;52.428;13.584;2023-02-20T06:21:35;101406.84;;;7.20;82.14
23016;BME280;11674;52.428;13.584;2023-02-20T06:26:43;101401.41;;;7.25;82.12
23016;BME280;11674;52.428;13.584;2023-02-20T06:31:49;101405.34;;;7.29;81.98
23016;BME280;11674;52.428;13.584;2023-02-20T06:36:56;101414.19;;;7.31;81.89
23016;BME280;11674;52.428;13.584;2023-02-20T06:42:04;101405.91;;;7.31;81.85
23016;BME280;11674;52.428;13.584;2023-02-20T06:47:11;101402.59;;;7.29;81.86
23016;BME280;11674;52.428;13.584;2023-02-20T06:52:18;101397.06;;;7.29;82.03
23016;BME280;11674;52.428;13.584;2023-02-20T06:57:25;101396.75;;;7.26;81.78
23016;BME280;11674;52.428;13.584;2023-02-20T07:02:32;101381.19;;;7.20;81.71
23016;BME280;11674;52.428;13.584;2023-02-20T07:07:39;101395.25;;;7.18;82.06
23016;BME280;11674;52.428;13.584;2023-02-20T07:12:46;101389.81;;;7.23;82.33
23016;BME280;11674;52.428;13.584;2023-02-20T07:17:53;101368.69;;;7.34;82.51
23016;BME280;11674;52.428;13.584;2023-02-20T07:23:00;101320.25;;;7.43;82.33
23016;BME280;11674;52.428;13.584;2023-02-20T07:28:07;101347.16;;;7.52;82.10
23016;BME280;11674;52.428;13.584;2023-02-20T07:33:15;101351.16;;;7.61;81.94
23016;BME280;11674;52.428;13.584;2023-02-20T07:38:22;101362.00;;;7.68;81.92
23016;BME280;11674;52.428;13.584;2023-02-20T07:43:30;101350.25;;;7.77;81.89
23016;BME280;11674;52.428;13.584;2023-02-20T07:48:36;101360.00;;;7.85;81.73
23016;BME280;11674;52.428;13.584;2023-02-20T07:53:48;101328.66;;;7.96;81.60
23016;BME280;11674;52.428;13.584;2023-02-20T07:58:54;101322.63;;;8.04;81.53
23016;BME280;11674;52.428;13.584;2023-02-20T08:04:01;101327.72;;;8.12;81.41
23016;BME280;11674;52.428;13.584;2023-02-20T08:09:08;101333.84;;;8.19;81.30
23016;BME280;11674;52.428;13.584;2023-02-20T08:14:15;101327.91;;;8.27;81.33
23016;BME280;11674;52.428;13.584;2023-02-20T08:19:22;101282.34;;;8.34;81.24
23016;BME280;11674;52.428;13.584;2023-02-20T08:24:29;101280.22;;;8.41;81.19
23016;BME280;11674;52.428;13.584;2023-02-20T08:29:36;101276.13;;;8.49;81.21
23016;BME280;11674;52.428;13.584;2023-02-20T08:34:43;101253.50;;;8.57;81.02
23016;BME280;11674;52.428;13.584;2023-02-20T08:39:50;101236.44;;;8.65;81.01
23016;BME280;11674;52.428;13.584;2023-02-20T08:44:57;101236.50;;;8.75;80.86
23016;BME280;11674;52.428;13.584;2023-02-20T08:50:05;101234.88;;;8.84;80.97
23016;BME280;11674;52.428;13.584;2023-02-20T08:55:12;101215.03;;;8.92;80.71
23016;BME280;11674;52.428;13.584;2023-02-20T09:00:19;101196.78;;;9.01;80.36
23016;BME280;11674;52.428;13.584;2023-02-20T09:05:25;101195.19;;;9.10;80.45
23016;BME280;11674;52.428;13.584;2023-02-20T09:10:33;101177.25;;;9.22;80.22
23016;BME280;11674;52.428;13.584;2023-02-20T09:15:40;101157.66;;;9.34;80.15
23016;BME280;11674;52.428;13.584;2023-02-20T09:20:46;101159.34;;;9.45;80.15
23016;BME280;11674;52.428;13.584;2023-02-20T09:25:54;101152.72;;;9.56;79.94
23016;BME280;11674;52.428;13.584;2023-02-20T09:31:01;101118.94;;;9.69;79.87
23016;BME280;11674;52.428;13.584;2023-02-20T09:36:08;101105.34;;;9.77;79.82
23016;BME280;11674;52.428;13.584;2023-02-20T09:41:26;101091.50;;;9.87;79.75
23016;BME280;11674;52.428;13.584;2023-02-20T09:46:35;101091.22;;;9.99;79.65
23016;BME280;11674;52.428;13.584;2023-02-20T09:51:50;101075.16;;;10.11;79.98
23016;BME280;11674;52.428;13.584;2023-02-20T09:57:01;101087.63;;;10.23;79.82
23016;BME280;11674;52.428;13.584;2023-02-20T10:07:37;101056.22;;;10.43;79.49
23016;BME280;11674;52.428;13.584;2023-02-20T10:12:54;101064.78;;;10.56;79.35
23016;BME280;11674;52.428;13.584;2023-02-20T10:23:40;101054.38;;;10.87;78.80
23016;BME280;11674;52.428;13.584;2023-02-20T10:28:49;101050.16;;;10.94;78.87
23016;BME280;11674;52.428;13.584;2023-02-20T10:34:07;101029.00;;;11.08;78.40
23016;BME280;11674;52.428;13.584;2023-02-20T10:39:19;101028.31;;;11.26;78.40
23016;BME280;11674;52.428;13.584;2023-02-20T10:44:52;101014.88;;;11.38;77.95
23016;BME280;11674;52.428;13.584;2023-02-20T10:50:09;101013.06;;;11.57;77.92
23016;BME280;11674;52.428;13.584;2023-02-20T10:55:51;101028.31;;;11.65;77.27
23016;BME280;11674;52.428;13.584;2023-02-20T11:01:03;100995.16;;;11.73;77.03
23016;BME280;11674;52.428;13.584;2023-02-20T11:06:15;100987.88;;;11.82;77.05
23016;BME280;11674;52.428;13.584;2023-02-20T11:11:30;100978.63;;;11.87;76.72
23016;BME280;11674;52.428;13.584;2023-02-20T11:16:46;100961.63;;;11.93;76.35
23016;BME280;11674;52.428;13.584;2023-02-20T11:21:54;100973.25;;;11.95;76.18
23016;BME280;11674;52.428;13.584;2023-02-20T11:27:22;100998.03;;;11.92;75.38
23016;BME280;11674;52.428;13.584;2023-02-20T11:32:35;100976.09;;;11.90;75.42
23016;BME280;11674;52.428;13.584;2023-02-20T11:37:44;100992.19;;;11.93;75.40
23016;BME280;11674;52.428;13.584;2023-02-20T11:42:51;100974.38;;;11.94;75.53
23016;BME280;11674;52.428;13.584;2023-02-20T11:48:11;100968.81;;;11.94;74.99
23016;BME280;11674;52.428;13.584;2023-02-20T11:53:30;100966.56;;;11.96;75.11
23016;BME280;11674;52.428;13.584;2023-02-20T11:58:39;100959.31;;;12.00;75.05
23016;BME280;11674;52.428;13.584;2023-02-20T12:03:53;100942.00;;;12.08;74.96
23016;BME280;11674;52.428;13.584;2023-02-20T12:09:14;100944.72;;;12.13;74.75
23016;BME280;11674;52.428;13.584;2023-02-20T12:14:23;100947.72;;;12.17;75.31
23016;BME280;11674;52.428;13.584;2023-02-20T12:19:43;100949.38;;;12.18;74.89
23016;BME280;11674;52.428;13.584;2023-02-20T12:36:02;100919.47;;;12.28;74.67
23016;BME280;11674;52.428;13.584;2023-02-20T12:47:33;100939.47;;;12.30;75.01
23016;BME280;11674;52.428;13.584;2023-02-20T13:03:56;100917.75;;;12.32;74.96
23016;BME280;11674;52.428;13.584;2023-02-20T13:09:27;100940.28;;;12.31;75.17
23016;BME280;11674;52.428;13.584;2023-02-20T13:30:44;100933.38;;;12.05;75.71
23016;BME280;11674;52.428;13.584;2023-02-20T13:35:52;100936.25;;;12.00;75.98
23016;BME280;11674;52.428;13.584;2023-02-20T13:41:07;100931.09;;;11.88;75.95
23016;BME280;11674;52.428;13.584;2023-02-20T13:46:16;100945.88;;;11.84;76.01
23016;BME280;11674;52.428;13.584;2023-02-20T14:02:11;100952.13;;;11.71;76.19
23016;BME280;11674;52.428;13.584;2023-02-20T14:07:36;100949.38;;;11.66;76.18
23016;BME280;11674;52.428;13.584;2023-02-20T14:12:45;100940.53;;;11.64;76.35
23016;BME280;11674;52.428;13.584;2023-02-20T14:17:58;100964.69;;;11.63;76.64
23016;BME280;11674;52.428;13.584;2023-02-20T14:23:28;100961.41;;;11.61;76.59
23016;BME280;11674;52.428;13.584;2023-02-20T14:28:35;100946.66;;;11.61;76.90
23016;BME280;11674;52.428;13.584;2023-02-20T14:33:42;100953.34;;;11.60;76.63
23016;BME280;11674;52.428;13.584;2023-02-20T14:44:04;100967.75;;;11.62;76.93
23016;BME280;11674;52.428;13.584;2023-02-20T14:49:15;100985.28;;;11.62;76.71
23016;BME280;11674;52.428;13.584;2023-02-20T14:54:24;100971.63;;;11.66;76.70
23016;BME280;11674;52.428;13.584;2023-02-20T14:59:41;100968.56;;;11.67;76.53
23016;BME280;11674;52.428;13.584;2023-02-20T15:05:01;100936.28;;;11.71;76.47
23016;BME280;11674;52.428;13.584;2023-02-20T15:10:55;100947.63;;;11.75;76.60
23016;BME280;11674;52.428;13.584;2023-02-20T15:21:12;100947.88;;;11.78;76.10
23016;BME280;11674;52.428;13.584;2023-02-20T15:26:31;100937.59;;;11.79;75.91
23016;BME280;11674;52.428;13.584;2023-02-20T15:31:38;100925.34;;;11.80;75.75
23016;BME280;11674;52.428;13.584;2023-02-20T15:36:45;100933.94;;;11.83;76.14
23016;BME280;11674;52.428;13.584;2023-02-20T15:41:52;100931.44;;;11.82;75.86
23016;BME280;11674;52.428;13.584;2023-02-20T15:46:59;100932.56;;;11.81;75.94
23016;BME280;11674;52.428;13.584;2023-02-20T15:52:12;100939.53;;;11.78;75.84
23016;BME280;11674;52.428;13.584;2023-02-20T15:57:21;100966.50;;;11.78;75.97
23016;BME280;11674;52.428;13.584;2023-02-20T16:02:28;100964.56;;;11.78;75.72
23016;BME280;11674;52.428;13.584;2023-02-20T16:07:35;100937.66;;;11.74;75.53
23016;BME280;11674;52.428;13.584;2023-02-20T16:12:42;100929.00;;;11.75;75.52
23016;BME280;11674;52.428;13.584;2023-02-20T16:17:49;100942.88;;;11.75;75.35
23016;BME280;11674;52.428;13.584;2023-02-20T16:22:57;100935.41;;;11.76;75.38
23016;BME280;11674;52.428;13.584;2023-02-20T16:28:04;100933.75;;;11.75;75.29
23016;BME280;11674;52.428;13.584;2023-02-20T16:33:20;100947.94;;;11.73;75.56
23016;BME280;11674;52.428;13.584;2023-02-20T16:38:27;100946.78;;;11.74;75.48
23016;BME280;11674;52.428;13.584;2023-02-20T16:43:34;100930.41;;;11.73;75.50
23016;BME280;11674;52.428;13.584;2023-02-20T16:48:41;100935.16;;;11.72;75.48
23016;BME280;11674;52.428;13.584;2023-02-20T16:53:48;100939.34;;;11.70;75.74
23016;BME280;11674;52.428;13.584;2023-02-20T16:58:55;100944.06;;;11.69;75.92
23016;BME280;11674;52.428;13.584;2023-02-20T17:04:02;100943.03;;;11.65;75.74
23016;BME280;11674;52.428;13.584;2023-02-20T17:09:09;100939.16;;;11.61;75.98
23016;BME280;11674;52.428;13.584;2023-02-20T17:14:16;100957.78;;;11.61;75.94
23016;BME280;11674;52.428;13.584;2023-02-20T17:19:23;100952.22;;;11.61;76.12
23016;BME280;11674;52.428;13.584;2023-02-20T17:24:30;100968.59;;;11.62;76.28
23016;BME280;11674;52.428;13.584;2023-02-20T17:29:37;100969.44;;;11.63;76.25
23016;BME280;11674;52.428;13.584;2023-02-20T17:34:45;100946.38;;;11.62;76.25
23016;BME280;11674;52.428;13.584;2023-02-20T17:39:52;100938.03;;;11.62;76.48
23016;BME280;11674;52.428;13.584;2023-02-20T17:44:59;100944.97;;;11.65;76.42
23016;BME280;11674;52.428;13.584;2023-02-20T17:50:07;100952.72;;;11.68;76.49
23016;BME280;11674;52.428;13.584;2023-02-20T17:55:18;100957.16;;;11.69;76.50
23016;BME280;11674;52.428;13.584;2023-02-20T18:00:25;100958.56;;;11.66;76.47
23016;BME280;11674;52.428;13.584;2023-02-20T18:05:32;100956.66;;;11.62;76.65
23016;BME280;11674;52.428;13.584;2023-02-20T18:10:39;100965.00;;;11.57;76.55
23016;BME280;11674;52.428;13.584;2023-02-20T18:15:46;100975.00;;;11.58;76.85
23016;BME280;11674;52.428;13.584;2023-02-20T18:20:53;100967.78;;;11.57;77.04
23016;BME280;11674;52.428;13.584;2023-02-20T18:26:00;100959.75;;;11.55;76.95
23016;BME280;11674;52.428;13.584;2023-02-20T18:31:07;100945.31;;;11.53;76.99
23016;BME280;11674;52.428;13.584;2023-02-20T18:36:14;100973.69;;;11.50;77.36
23016;BME280;11674;52.428;13.584;2023-02-20T18:41:21;100951.50;;;11.45;77.33
23016;BME280;11674;52.428;13.584;2023-02-20T18:46:33;100956.28;;;11.40;77.14
23016;BME280;11674;52.428;13.584;2023-02-20T18:51:41;100962.91;;;11.44;77.42
23016;BME280;11674;52.428;13.584;2023-02-20T18:56:50;100936.31;;;11.38;77.33
23016;BME280;11674;52.428;13.584;2023-02-20T19:01:57;100933.59;;;11.28;77.29
23016;BME280;11674;52.428;13.584;2023-02-20T19:07:05;100942.56;;;11.20;77.72
23016;BME280;11674;52.428;13.584;2023-02-20T19:12:12;100939.53;;;11.16;77.94
23016;BME280;11674;52.428;13.584;2023-02-20T19:17:19;100942.63;;;11.15;78.14
23016;BME280;11674;52.428;13.584;2023-02-20T19:22:29;100924.03;;;11.10;78.05
23016;BME280;11674;52.428;13.584;2023-02-20T19:27:36;100921.00;;;11.07;78.37
23016;BME280;11674;52.428;13.584;2023-02-20T19:32:50;100914.94;;;11.05;78.22
23016;BME280;11674;52.428;13.584;2023-02-20T19:37:57;100932.41;;;11.05;78.67
23016;BME280;11674;52.428;13.584;2023-02-20T19:43:04;100914.09;;;11.04;78.53
23016;BME280;11674;52.428;13.584;2023-02-20T19:48:11;100915.47;;;11.07;78.61
23016;BME280;11674;52.428;13.584;2023-02-20T19:53:18;100906.56;;;11.10;78.57
23016;BME280;11674;52.428;13.584;2023-02-20T19:58:25;100906.81;;;11.13;78.84
23016;BME280;11674;52.428;13.584;2023-02-20T20:03:32;100907.56;;;11.19;78.80
23016;BME280;11674;52.428;13.584;2023-02-20T20:08:39;100898.69;;;11.22;78.97
23016;BME280;11674;52.428;13.584;2023-02-20T20:13:46;100889.22;;;11.23;78.85
23016;BME280;11674;52.428;13.584;2023-02-20T20:18:53;100926.69;;;11.25;78.62
23016;BME280;11674;52.428;13.584;2023-02-20T20:24:00;100907.50;;;11.29;78.91
23016;BME280;11674;52.428;13.584;2023-02-20T20:29:14;100904.91;;;11.37;78.94
23016;BME280;11674;52.428;13.584;2023-02-20T20:34:21;100903.69;;;11.48;78.89
23016;BME280;11674;52.428;13.584;2023-02-20T20:39:28;100918.38;;;11.54;78.66
23016;BME280;11674;52.428;13.584;2023-02-20T20:44:35;100914.47;;;11.55;78.37
23016;BME280;11674;52.428;13.584;2023-02-20T20:49:42;100905.28;;;11.54;78.49
23016;BME280;11674;52.428;13.584;2023-02-20T20:54:50;100908.34;;;11.58;78.31
23016;BME280;11674;52.428;13.584;2023-02-20T20:59:57;100895.84;;;11.60;78.44
23016;BME280;11674;52.428;13.584;2023-02-20T21:05:05;100906.38;;;11.58;78.35
23016;BME280;11674;52.428;13.584;2023-02-20T21:10:12;100916.09;;;11.61;78.31
23016;BME280;11674;52.428;13.584;2023-02-20T21:15:19;100886.59;;;11.65;78.20
23016;BME280;11674;52.428;13.584;2023-02-20T21:20:27;100890.22;;;11.65;78.34
23016;BME280;11674;52.428;13.584;2023-02-20T21:25:35;100881.06;;;11.65;78.37
23016;BME280;11674;52.428;13.584;2023-02-20T21:30:49;100885.75;;;11.64;78.28
23016;BME280;11674;52.428;13.584;2023-02-20T21:35:56;100888.88;;;11.63;78.51
23016;BME280;11674;52.428;13.584;2023-02-20T21:41:03;100875.78;;;11.63;78.48
23016;BME280;11674;52.428;13.584;2023-02-20T21:46:10;100877.75;;;11.63;78.41
23016;BME280;11674;52.428;13.584;2023-02-20T21:51:20;100885.47;;;11.66;78.36
23016;BME280;11674;52.428;13.584;2023-02-20T21:56:27;100886.59;;;11.65;78.19
23016;BME280;11674;52.428;13.584;2023-02-20T22:01:36;100877.13;;;11.66;78.16
23016;BME280;11674;52.428;13.584;2023-02-20T22:06:44;100874.91;;;11.68;78.19
23016;BME280;11674;52.428;13.584;2023-02-20T22:11:51;100874.91;;;11.68;78.32
23016;BME280;11674;52.428;13.584;2023-02-20T22:16:58;100872.66;;;11.70;78.44
23016;BME280;11674;52.428;13.584;2023-02-20T22:22:05;100872.66;;;11.70;78.19
23016;BME280;11674;52.428;13.584;2023-02-20T22:27:12;100858.25;;;11.68;78.24
23016;BME280;11674;52.428;13.584;2023-02-20T22:32:19;100882.13;;;11.69;78.34
23016;BME280;11674;52.428;13.584;2023-02-20T22:37:26;100866.25;;;11.69;78.41
23016;BME280;11674;52.428;13.584;2023-02-20T22:42:33;100886.56;;;11.70;78.67
23016;BME280;11674;52.428;13.584;2023-02-20T22:47:41;100881.28;;;11.68;78.58
23016;BME280;11674;52.428;13.584;2023-02-20T22:52:51;100916.00;;;11.71;78.57
23016;BME280;11674;52.428;13.584;2023-02-20T22:57:58;100896.53;;;11.71;78.47
23016;BME280;11674;52.428;13.584;2023-02-20T23:03:05;100920.97;;;11.74;78.47
23016;BME280;11674;52.428;13.584;2023-02-20T23:08:12;100914.28;;;11.75;78.36
23016;BME280;11674;52.428;13.584;2023-02-20T23:13:19;100926.22;;;11.75;78.64
23016;BME280;11674;52.428;13.584;2023-02-20T23:18:26;100917.88;;;11.75;78.73
23016;BME280;11674;52.428;13.584;2023-02-20T23:23:33;100924.00;;;11.77;78.69
23016;BME280;11674;52.428;13.584;2023-02-20T23:28:40;100938.16;;;11.76;78.79
23016;BME280;11674;52.428;13.584;2023-02-20T23:33:47;100928.81;;;11.67;78.99
23016;BME280;11674;52.428;13.584;2023-02-20T23:38:54;100932.44;;;11.67;78.94
23016;BME280;11674;52.428;13.584;2023-02-20T23:44:04;100922.22;;;11.63;78.99
23016;BME280;11674;52.428;13.584;2023-02-20T23:49:12;100922.22;;;11.63;79.32
23016;BME280;11674;52.428;13.584;2023-02-20T23:54:20;100920.03;;;11.55;79.16
23016;BME280;11674;52.428;13.584;2023-02-20T23:59:27;100920.06;;;11.50;79.31
